Weather at Hartsfield Jackson Atlanta International Airport

Public forecast

Using degrees Fahrenheit for public forecast. Weather courtesy of forecast.io.

Current aviation weather report (METAR) for Hartsfield Jackson Atlanta International Airport

Retrieved 2021/03/02 17:52 UTC (39 minutes ago):

KATL 021752Z 09011KT 10SM SCT075 BKN120 OVC150 09/M02 A3021 RMK AO2 SLP233 VIRGA OHD-ALQDS ACC W-N-NE T00891022 10089 20067 56010

Aviation forecast (TAF) for Hartsfield Jackson Atlanta International Airport

Retrieved 2021/03/02 12:36 UTC (6 hours ago):

TAF KATL 021135Z 0212/0318 01008KT P6SM SCT100 BKN150 FM021500 08007KT P6SM SCT060 OVC100 FM022100 10010KT P6SM -SHRA OVC030 FM022300 09009KT 5SM SHRA BR OVC015 FM030200 07009KT 4SM SHRA BR OVC008 FM030900 02009KT 4SM -SHRA BR OVC006 FM031300 35008KT P6SM BKN015